sensor_id;sensor_type;location;lat;lon;timestamp;temperature;humidity
8563;DHT22;16392;52.508;13.468;2023-09-18T00:00:25;19.10;99.90
8563;DHT22;16392;52.508;13.468;2023-09-18T00:02:51;19.10;99.90
8563;DHT22;16392;52.508;13.468;2023-09-18T00:05:18;19.00;99.90
8563;DHT22;16392;52.508;13.468;2023-09-18T00:07:45;19.00;99.90
8563;DHT22;16392;52.508;13.468;2023-09-18T00:10:12;19.00;99.90
8563;DHT22;16392;52.508;13.468;2023-09-18T00:12:39;19.00;99.90
8563;DHT22;16392;52.508;13.468;2023-09-18T00:15:08;19.00;99.90
8563;DHT22;16392;52.508;13.468;2023-09-18T00:17:34;18.90;99.90
8563;DHT22;16392;52.508;13.468;2023-09-18T00:20:01;18.90;99.90
8563;DHT22;16392;52.508;13.468;2023-09-18T00:22:30;18.80;99.90
8563;DHT22;16392;52.508;13.468;2023-09-18T00:24:57;18.80;99.90
8563;DHT22;16392;52.508;13.468;2023-09-18T00:27:23;18.70;99.90
8563;DHT22;16392;52.508;13.468;2023-09-18T00:29:50;18.70;99.90
8563;DHT22;16392;52.508;13.468;2023-09-18T00:32:18;18.70;99.90
8563;DHT22;16392;52.508;13.468;2023-09-18T00:34:44;18.60;99.90
8563;DHT22;16392;52.508;13.468;2023-09-18T00:37:11;18.60;99.90
8563;DHT22;16392;52.508;13.468;2023-09-18T00:39:37;18.60;99.90
8563;DHT22;16392;52.508;13.468;2023-09-18T00:42:04;18.50;99.90
8563;DHT22;16392;52.508;13.468;2023-09-18T00:44:31;18.50;99.90
8563;DHT22;16392;52.508;13.468;2023-09-18T00:46:57;18.50;99.90
8563;DHT22;16392;52.508;13.468;2023-09-18T00:49:25;18.50;99.90
8563;DHT22;16392;52.508;13.468;2023-09-18T00:51:52;18.50;99.90
8563;DHT22;16392;52.508;13.468;2023-09-18T00:54:19;18.40;99.90
8563;DHT22;16392;52.508;13.468;2023-09-18T00:56:46;18.50;99.90
8563;DHT22;16392;52.508;13.468;2023-09-18T00:59:19;18.40;99.90
8563;DHT22;16392;52.508;13.468;2023-09-18T01:01:46;18.40;99.90
8563;DHT22;16392;52.508;13.468;2023-09-18T01:04:16;18.40;99.90
8563;DHT22;16392;52.508;13.468;2023-09-18T01:06:44;18.30;99.90
8563;DHT22;16392;52.508;13.468;2023-09-18T01:09:11;18.30;99.90
8563;DHT22;16392;52.508;13.468;2023-09-18T01:11:44;18.20;99.90
8563;DHT22;16392;52.508;13.468;2023-09-18T01:14:19;18.20;99.90
8563;DHT22;16392;52.508;13.468;2023-09-18T01:16:50;18.20;99.90
8563;DHT22;16392;52.508;13.468;2023-09-18T01:19:34;18.20;99.90
8563;DHT22;16392;52.508;13.468;2023-09-18T01:22:03;18.20;99.90
8563;DHT22;16392;52.508;13.468;2023-09-18T01:24:31;18.10;99.90
8563;DHT22;16392;52.508;13.468;2023-09-18T01:26:57;18.10;99.90
8563;DHT22;16392;52.508;13.468;2023-09-18T01:29:24;18.10;99.90
8563;DHT22;16392;52.508;13.468;2023-09-18T01:31:51;18.10;99.90
8563;DHT22;16392;52.508;13.468;2023-09-18T01:34:20;18.10;99.90
8563;DHT22;16392;52.508;13.468;2023-09-18T01:36:47;18.10;99.90
8563;DHT22;16392;52.508;13.468;2023-09-18T01:39:16;18.10;99.90
8563;DHT22;16392;52.508;13.468;2023-09-18T01:41:45;18.00;99.90
8563;DHT22;16392;52.508;13.468;2023-09-18T01:44:13;18.00;99.90
8563;DHT22;16392;52.508;13.468;2023-09-18T01:46:39;17.90;99.90
8563;DHT22;16392;52.508;13.468;2023-09-18T01:49:08;17.90;99.90
8563;DHT22;16392;52.508;13.468;2023-09-18T01:51:34;17.90;99.90
8563;DHT22;16392;52.508;13.468;2023-09-18T01:54:01;17.90;99.90
8563;DHT22;16392;52.508;13.468;2023-09-18T01:56:29;17.90;99.90
8563;DHT22;16392;52.508;13.468;2023-09-18T01:58:56;17.90;99.90
8563;DHT22;16392;52.508;13.468;2023-09-18T02:01:23;17.90;99.90
8563;DHT22;16392;52.508;13.468;2023-09-18T02:03:50;17.90;99.90
8563;DHT22;16392;52.508;13.468;2023-09-18T02:06:16;17.80;99.90
8563;DHT22;16392;52.508;13.468;2023-09-18T02:08:43;17.80;99.90
8563;DHT22;16392;52.508;13.468;2023-09-18T02:11:09;17.80;99.90
8563;DHT22;16392;52.508;13.468;2023-09-18T02:13:36;17.70;99.90
8563;DHT22;16392;52.508;13.468;2023-09-18T02:16:04;17.70;99.90
8563;DHT22;16392;52.508;13.468;2023-09-18T02:18:30;17.80;99.90
8563;DHT22;16392;52.508;13.468;2023-09-18T02:20:57;17.80;99.90
8563;DHT22;16392;52.508;13.468;2023-09-18T02:23:23;17.70;99.90
8563;DHT22;16392;52.508;13.468;2023-09-18T02:25:55;17.70;99.90
8563;DHT22;16392;52.508;13.468;2023-09-18T02:28:22;17.70;99.90
8563;DHT22;16392;52.508;13.468;2023-09-18T02:30:48;17.70;99.90
8563;DHT22;16392;52.508;13.468;2023-09-18T02:33:16;17.60;99.90
8563;DHT22;16392;52.508;13.468;2023-09-18T02:35:43;17.60;99.90
8563;DHT22;16392;52.508;13.468;2023-09-18T02:38:09;17.60;99.90
8563;DHT22;16392;52.508;13.468;2023-09-18T02:40:36;17.60;99.90
8563;DHT22;16392;52.508;13.468;2023-09-18T02:43:03;17.60;99.90
8563;DHT22;16392;52.508;13.468;2023-09-18T02:45:29;17.60;99.90
8563;DHT22;16392;52.508;13.468;2023-09-18T02:47:56;17.60;99.90
8563;DHT22;16392;52.508;13.468;2023-09-18T02:50:24;17.60;99.90
8563;DHT22;16392;52.508;13.468;2023-09-18T02:52:50;17.50;99.90
8563;DHT22;16392;52.508;13.468;2023-09-18T02:55:17;17.50;99.90
8563;DHT22;16392;52.508;13.468;2023-09-18T02:57:44;17.50;99.90
8563;DHT22;16392;52.508;13.468;2023-09-18T03:00:11;17.50;99.90
8563;DHT22;16392;52.508;13.468;2023-09-18T03:02:37;17.50;99.90
8563;DHT22;16392;52.508;13.468;2023-09-18T03:05:04;17.50;99.90
8563;DHT22;16392;52.508;13.468;2023-09-18T03:07:33;17.50;99.90
8563;DHT22;16392;52.508;13.468;2023-09-18T03:09:59;17.40;99.90
8563;DHT22;16392;52.508;13.468;2023-09-18T03:12:26;17.40;99.90
8563;DHT22;16392;52.508;13.468;2023-09-18T03:14:53;17.40;99.90
8563;DHT22;16392;52.508;13.468;2023-09-18T03:17:20;17.40;99.90
8563;DHT22;16392;52.508;13.468;2023-09-18T03:19:47;17.40;99.90
8563;DHT22;16392;52.508;13.468;2023-09-18T03:22:14;17.40;99.90
8563;DHT22;16392;52.508;13.468;2023-09-18T03:24:43;17.40;99.90
8563;DHT22;16392;52.508;13.468;2023-09-18T03:27:10;17.40;99.90
8563;DHT22;16392;52.508;13.468;2023-09-18T03:29:36;17.40;99.90
8563;DHT22;16392;52.508;13.468;2023-09-18T03:32:03;17.40;99.90
8563;DHT22;16392;52.508;13.468;2023-09-18T03:34:30;17.40;99.90
8563;DHT22;16392;52.508;13.468;2023-09-18T03:36:57;17.30;99.90
8563;DHT22;16392;52.508;13.468;2023-09-18T03:39:23;17.30;99.90
8563;DHT22;16392;52.508;13.468;2023-09-18T03:41:51;17.30;99.90
8563;DHT22;16392;52.508;13.468;2023-09-18T03:44:18;17.30;99.90
8563;DHT22;16392;52.508;13.468;2023-09-18T03:46:44;17.30;99.90
8563;DHT22;16392;52.508;13.468;2023-09-18T03:49:11;17.30;99.90
8563;DHT22;16392;52.508;13.468;2023-09-18T03:51:37;17.20;99.90
8563;DHT22;16392;52.508;13.468;2023-09-18T03:54:04;17.20;99.90
8563;DHT22;16392;52.508;13.468;2023-09-18T03:56:31;17.20;99.90
8563;DHT22;16392;52.508;13.468;2023-09-18T03:58:59;17.20;99.90
8563;DHT22;16392;52.508;13.468;2023-09-18T04:01:26;17.20;99.90
8563;DHT22;16392;52.508;13.468;2023-09-18T04:03:53;17.20;99.90
8563;DHT22;16392;52.508;13.468;2023-09-18T04:06:21;17.20;99.90
8563;DHT22;16392;52.508;13.468;2023-09-18T04:08:49;17.20;99.90
8563;DHT22;16392;52.508;13.468;2023-09-18T04:11:16;17.20;99.90
8563;DHT22;16392;52.508;13.468;2023-09-18T04:13:42;17.20;99.90
8563;DHT22;16392;52.508;13.468;2023-09-18T04:16:10;17.10;99.90
8563;DHT22;16392;52.508;13.468;2023-09-18T04:18:42;17.10;99.90
8563;DHT22;16392;52.508;13.468;2023-09-18T04:21:08;17.10;99.90
8563;DHT22;16392;52.508;13.468;2023-09-18T04:23:36;17.10;99.90
8563;DHT22;16392;52.508;13.468;2023-09-18T04:26:03;17.10;99.90
8563;DHT22;16392;52.508;13.468;2023-09-18T04:28:29;17.10;99.90
8563;DHT22;16392;52.508;13.468;2023-09-18T04:30:56;17.20;99.90
8563;DHT22;16392;52.508;13.468;2023-09-18T04:33:24;17.10;99.90
8563;DHT22;16392;52.508;13.468;2023-09-18T04:35:51;17.10;99.90
8563;DHT22;16392;52.508;13.468;2023-09-18T04:38:17;17.10;99.90
8563;DHT22;16392;52.508;13.468;2023-09-18T04:40:44;17.10;99.90
8563;DHT22;16392;52.508;13.468;2023-09-18T04:43:11;17.10;99.90
8563;DHT22;16392;52.508;13.468;2023-09-18T04:45:38;17.10;99.90
8563;DHT22;16392;52.508;13.468;2023-09-18T04:48:05;17.10;99.90
8563;DHT22;16392;52.508;13.468;2023-09-18T04:50:34;17.10;99.90
8563;DHT22;16392;52.508;13.468;2023-09-18T04:53:01;17.10;99.90
8563;DHT22;16392;52.508;13.468;2023-09-18T04:55:29;17.10;99.90
8563;DHT22;16392;52.508;13.468;2023-09-18T04:57:56;17.20;99.90
8563;DHT22;16392;52.508;13.468;2023-09-18T05:00:24;17.20;99.90
8563;DHT22;16392;52.508;13.468;2023-09-18T05:02:51;17.20;99.90
8563;DHT22;16392;52.508;13.468;2023-09-18T05:05:19;17.20;99.90
8563;DHT22;16392;52.508;13.468;2023-09-18T05:07:47;17.30;99.90
8563;DHT22;16392;52.508;13.468;2023-09-18T05:10:14;17.50;99.90
8563;DHT22;16392;52.508;13.468;2023-09-18T05:12:41;17.70;99.90
8563;DHT22;16392;52.508;13.468;2023-09-18T05:15:08;18.00;99.90
8563;DHT22;16392;52.508;13.468;2023-09-18T05:17:42;18.10;99.90
8563;DHT22;16392;52.508;13.468;2023-09-18T05:20:11;18.40;99.90
8563;DHT22;16392;52.508;13.468;2023-09-18T05:22:41;18.70;99.90
8563;DHT22;16392;52.508;13.468;2023-09-18T05:25:10;18.90;99.90
8563;DHT22;16392;52.508;13.468;2023-09-18T05:27:37;19.00;99.90
8563;DHT22;16392;52.508;13.468;2023-09-18T05:30:11;19.20;99.90
8563;DHT22;16392;52.508;13.468;2023-09-18T05:32:38;19.40;99.90
8563;DHT22;16392;52.508;13.468;2023-09-18T05:35:06;19.60;99.90
8563;DHT22;16392;52.508;13.468;2023-09-18T05:37:35;19.70;99.90
8563;DHT22;16392;52.508;13.468;2023-09-18T05:40:03;19.90;99.90
8563;DHT22;16392;52.508;13.468;2023-09-18T05:42:32;20.10;99.90
8563;DHT22;16392;52.508;13.468;2023-09-18T05:44:58;20.10;99.90
8563;DHT22;16392;52.508;13.468;2023-09-18T05:47:25;20.40;99.90
8563;DHT22;16392;52.508;13.468;2023-09-18T05:49:51;20.50;99.90
8563;DHT22;16392;52.508;13.468;2023-09-18T05:52:18;20.80;99.90
8563;DHT22;16392;52.508;13.468;2023-09-18T05:54:45;21.10;99.90
8563;DHT22;16392;52.508;13.468;2023-09-18T05:57:11;21.30;99.90
8563;DHT22;16392;52.508;13.468;2023-09-18T05:59:39;21.50;99.90
8563;DHT22;16392;52.508;13.468;2023-09-18T06:02:09;21.50;99.90
8563;DHT22;16392;52.508;13.468;2023-09-18T06:04:35;21.60;99.90
8563;DHT22;16392;52.508;13.468;2023-09-18T06:07:02;21.70;99.90
8563;DHT22;16392;52.508;13.468;2023-09-18T06:09:29;21.40;99.90
8563;DHT22;16392;52.508;13.468;2023-09-18T06:11:56;21.10;99.90
8563;DHT22;16392;52.508;13.468;2023-09-18T06:14:22;21.10;99.90
8563;DHT22;16392;52.508;13.468;2023-09-18T06:16:50;21.20;99.90
8563;DHT22;16392;52.508;13.468;2023-09-18T06:19:17;21.20;99.90
8563;DHT22;16392;52.508;13.468;2023-09-18T06:21:44;21.40;99.90
8563;DHT22;16392;52.508;13.468;2023-09-18T06:24:10;21.50;99.90
8563;DHT22;16392;52.508;13.468;2023-09-18T06:26:37;21.30;99.90
8563;DHT22;16392;52.508;13.468;2023-09-18T06:29:04;20.90;99.90
8563;DHT22;16392;52.508;13.468;2023-09-18T06:31:31;20.70;99.90
8563;DHT22;16392;52.508;13.468;2023-09-18T06:33:59;20.90;99.90
8563;DHT22;16392;52.508;13.468;2023-09-18T06:36:26;21.00;99.90
8563;DHT22;16392;52.508;13.468;2023-09-18T06:38:52;21.40;99.90
8563;DHT22;16392;52.508;13.468;2023-09-18T06:41:19;21.70;99.90
8563;DHT22;16392;52.508;13.468;2023-09-18T06:43:45;21.60;99.90
8563;DHT22;16392;52.508;13.468;2023-09-18T06:46:12;21.50;99.90
8563;DHT22;16392;52.508;13.468;2023-09-18T06:48:38;21.80;99.90
8563;DHT22;16392;52.508;13.468;2023-09-18T06:51:06;22.20;99.90
8563;DHT22;16392;52.508;13.468;2023-09-18T06:53:33;22.80;86.30
8563;DHT22;16392;52.508;13.468;2023-09-18T06:56:00;22.70;35.40
8563;DHT22;16392;52.508;13.468;2023-09-18T06:58:26;23.20;10.00
8563;DHT22;16392;52.508;13.468;2023-09-18T07:00:53;23.50;1.00
8563;DHT22;16392;52.508;13.468;2023-09-18T07:03:19;23.80;1.00
8563;DHT22;16392;52.508;13.468;2023-09-18T07:05:46;23.90;1.00
8563;DHT22;16392;52.508;13.468;2023-09-18T07:08:14;24.20;1.00
8563;DHT22;16392;52.508;13.468;2023-09-18T07:10:44;24.20;1.00
8563;DHT22;16392;52.508;13.468;2023-09-18T07:13:11;24.20;1.00
8563;DHT22;16392;52.508;13.468;2023-09-18T07:15:37;24.40;1.00
8563;DHT22;16392;52.508;13.468;2023-09-18T07:18:04;24.60;1.00
8563;DHT22;16392;52.508;13.468;2023-09-18T07:20:31;24.60;1.00
8563;DHT22;16392;52.508;13.468;2023-09-18T07:22:57;24.70;1.00
8563;DHT22;16392;52.508;13.468;2023-09-18T07:25:25;24.80;1.00
8563;DHT22;16392;52.508;13.468;2023-09-18T07:27:52;24.80;1.00
8563;DHT22;16392;52.508;13.468;2023-09-18T07:30:19;24.80;1.00
8563;DHT22;16392;52.508;13.468;2023-09-18T07:32:47;24.70;1.00
8563;DHT22;16392;52.508;13.468;2023-09-18T07:35:14;24.70;1.00
8563;DHT22;16392;52.508;13.468;2023-09-18T07:37:41;24.90;1.00
8563;DHT22;16392;52.508;13.468;2023-09-18T07:40:10;24.90;1.00
8563;DHT22;16392;52.508;13.468;2023-09-18T07:42:38;25.20;1.00
8563;DHT22;16392;52.508;13.468;2023-09-18T07:45:05;25.60;99.90
8563;DHT22;16392;52.508;13.468;2023-09-18T07:47:32;25.80;99.90
8563;DHT22;16392;52.508;13.468;2023-09-18T07:49:59;26.00;99.90
8563;DHT22;16392;52.508;13.468;2023-09-18T07:52:26;25.60;99.90
8563;DHT22;16392;52.508;13.468;2023-09-18T07:54:53;25.00;1.00
8563;DHT22;16392;52.508;13.468;2023-09-18T07:57:19;25.40;1.00
8563;DHT22;16392;52.508;13.468;2023-09-18T07:59:49;25.80;99.90
8563;DHT22;16392;52.508;13.468;2023-09-18T08:02:16;26.30;1.00
8563;DHT22;16392;52.508;13.468;2023-09-18T08:04:43;26.40;1.00
8563;DHT22;16392;52.508;13.468;2023-09-18T08:07:10;26.00;46.10
8563;DHT22;16392;52.508;13.468;2023-09-18T08:09:38;26.70;99.90
8563;DHT22;16392;52.508;13.468;2023-09-18T08:12:05;26.60;1.00
8563;DHT22;16392;52.508;13.468;2023-09-18T08:14:32;26.80;99.90
8563;DHT22;16392;52.508;13.468;2023-09-18T08:17:02;26.30;1.00
8563;DHT22;16392;52.508;13.468;2023-09-18T08:19:30;26.80;1.00
8563;DHT22;16392;52.508;13.468;2023-09-18T08:21:58;26.70;1.00
8563;DHT22;16392;52.508;13.468;2023-09-18T08:24:26;26.30;99.90
8563;DHT22;16392;52.508;13.468;2023-09-18T08:26:53;25.90;1.00
8563;DHT22;16392;52.508;13.468;2023-09-18T08:29:21;26.00;99.90
8563;DHT22;16392;52.508;13.468;2023-09-18T08:31:48;25.80;1.00
8563;DHT22;16392;52.508;13.468;2023-09-18T08:34:18;25.90;1.00
8563;DHT22;16392;52.508;13.468;2023-09-18T08:36:45;26.50;1.00
8563;DHT22;16392;52.508;13.468;2023-09-18T08:39:11;26.60;99.90
8563;DHT22;16392;52.508;13.468;2023-09-18T08:41:42;27.00;99.90
8563;DHT22;16392;52.508;13.468;2023-09-18T08:44:09;27.00;99.90
8563;DHT22;16392;52.508;13.468;2023-09-18T08:46:36;27.20;1.00
8563;DHT22;16392;52.508;13.468;2023-09-18T08:49:04;27.20;1.00
8563;DHT22;16392;52.508;13.468;2023-09-18T08:51:32;27.80;99.90
8563;DHT22;16392;52.508;13.468;2023-09-18T08:53:59;27.70;1.00
8563;DHT22;16392;52.508;13.468;2023-09-18T08:56:29;27.80;1.00
8563;DHT22;16392;52.508;13.468;2023-09-18T08:58:56;28.00;1.00
8563;DHT22;16392;52.508;13.468;2023-09-18T09:01:25;28.00;99.90
8563;DHT22;16392;52.508;13.468;2023-09-18T09:03:52;27.30;99.90
8563;DHT22;16392;52.508;13.468;2023-09-18T09:06:20;27.20;1.00
8563;DHT22;16392;52.508;13.468;2023-09-18T09:08:48;27.20;1.00
8563;DHT22;16392;52.508;13.468;2023-09-18T09:11:15;27.50;99.90
8563;DHT22;16392;52.508;13.468;2023-09-18T09:13:42;27.40;1.00
8563;DHT22;16392;52.508;13.468;2023-09-18T09:16:11;26.90;1.00
8563;DHT22;16392;52.508;13.468;2023-09-18T09:18:47;26.80;99.90
8563;DHT22;16392;52.508;13.468;2023-09-18T09:21:15;27.10;1.00
8563;DHT22;16392;52.508;13.468;2023-09-18T09:23:46;27.50;99.90
8563;DHT22;16392;52.508;13.468;2023-09-18T09:26:16;27.70;99.90
8563;DHT22;16392;52.508;13.468;2023-09-18T09:28:44;26.90;99.90
8563;DHT22;16392;52.508;13.468;2023-09-18T09:31:11;26.50;99.90
8563;DHT22;16392;52.508;13.468;2023-09-18T09:33:51;26.90;99.90
8563;DHT22;16392;52.508;13.468;2023-09-18T09:36:19;27.20;99.90
8563;DHT22;16392;52.508;13.468;2023-09-18T09:38:46;27.60;1.00
8563;DHT22;16392;52.508;13.468;2023-09-18T09:41:13;27.90;16.50
8563;DHT22;16392;52.508;13.468;2023-09-18T09:43:43;28.20;1.00
8563;DHT22;16392;52.508;13.468;2023-09-18T09:46:15;27.80;95.60
8563;DHT22;16392;52.508;13.468;2023-09-18T09:48:57;27.40;99.90
8563;DHT22;16392;52.508;13.468;2023-09-18T09:51:24;27.20;1.00
8563;DHT22;16392;52.508;13.468;2023-09-18T09:53:51;27.30;1.00
8563;DHT22;16392;52.508;13.468;2023-09-18T09:56:18;27.10;99.90
8563;DHT22;16392;52.508;13.468;2023-09-18T09:59:01;26.80;1.00
8563;DHT22;16392;52.508;13.468;2023-09-18T10:01:31;26.50;99.90
8563;DHT22;16392;52.508;13.468;2023-09-18T10:03:58;26.40;1.00
8563;DHT22;16392;52.508;13.468;2023-09-18T10:06:27;26.60;1.00
8563;DHT22;16392;52.508;13.468;2023-09-18T10:08:56;26.80;99.90
8563;DHT22;16392;52.508;13.468;2023-09-18T10:11:24;26.90;99.90
8563;DHT22;16392;52.508;13.468;2023-09-18T10:13:55;26.90;99.90
8563;DHT22;16392;52.508;13.468;2023-09-18T10:16:24;26.80;99.90
8563;DHT22;16392;52.508;13.468;2023-09-18T10:19:02;26.50;99.90
8563;DHT22;16392;52.508;13.468;2023-09-18T10:21:39;26.50;1.00
8563;DHT22;16392;52.508;13.468;2023-09-18T10:24:14;26.60;1.00
8563;DHT22;16392;52.508;13.468;2023-09-18T10:26:48;26.50;1.00
8563;DHT22;16392;52.508;13.468;2023-09-18T10:29:18;26.80;99.90
8563;DHT22;16392;52.508;13.468;2023-09-18T10:31:48;26.90;1.00
8563;DHT22;16392;52.508;13.468;2023-09-18T10:34:16;27.00;99.90
8563;DHT22;16392;52.508;13.468;2023-09-18T10:36:43;26.90;99.90
8563;DHT22;16392;52.508;13.468;2023-09-18T10:39:10;26.90;1.00
8563;DHT22;16392;52.508;13.468;2023-09-18T10:41:38;26.90;1.00
8563;DHT22;16392;52.508;13.468;2023-09-18T10:44:07;26.70;1.00
8563;DHT22;16392;52.508;13.468;2023-09-18T10:46:34;26.50;67.50
8563;DHT22;16392;52.508;13.468;2023-09-18T10:49:03;26.70;1.00
8563;DHT22;16392;52.508;13.468;2023-09-18T10:51:31;26.50;54.20
8563;DHT22;16392;52.508;13.468;2023-09-18T10:53:59;26.60;1.00
8563;DHT22;16392;52.508;13.468;2023-09-18T10:56:26;26.60;1.00
8563;DHT22;16392;52.508;13.468;2023-09-18T10:58:57;26.60;1.00
8563;DHT22;16392;52.508;13.468;2023-09-18T11:01:24;26.60;1.00
8563;DHT22;16392;52.508;13.468;2023-09-18T11:03:53;26.60;1.00
8563;DHT22;16392;52.508;13.468;2023-09-18T11:06:21;26.70;1.00
8563;DHT22;16392;52.508;13.468;2023-09-18T11:08:53;26.60;1.00
8563;DHT22;16392;52.508;13.468;2023-09-18T11:11:27;26.70;1.00
8563;DHT22;16392;52.508;13.468;2023-09-18T11:13:56;26.60;1.00
8563;DHT22;16392;52.508;13.468;2023-09-18T11:16:40;26.50;1.00
8563;DHT22;16392;52.508;13.468;2023-09-18T11:19:12;26.40;99.90
8563;DHT22;16392;52.508;13.468;2023-09-18T11:21:41;26.10;1.00
8563;DHT22;16392;52.508;13.468;2023-09-18T11:24:16;26.20;85.30
8563;DHT22;16392;52.508;13.468;2023-09-18T11:26:45;26.10;1.00
8563;DHT22;16392;52.508;13.468;2023-09-18T11:29:14;26.20;25.70
8563;DHT22;16392;52.508;13.468;2023-09-18T11:31:44;26.20;1.00
8563;DHT22;16392;52.508;13.468;2023-09-18T11:34:12;26.30;99.90
8563;DHT22;16392;52.508;13.468;2023-09-18T11:36:39;26.20;99.90
8563;DHT22;16392;52.508;13.468;2023-09-18T11:39:07;26.30;99.90
8563;DHT22;16392;52.508;13.468;2023-09-18T11:41:35;26.30;1.00
8563;DHT22;16392;52.508;13.468;2023-09-18T11:44:31;26.10;29.60
8563;DHT22;16392;52.508;13.468;2023-09-18T11:47:00;26.10;99.90
8563;DHT22;16392;52.508;13.468;2023-09-18T11:49:30;26.20;1.00
8563;DHT22;16392;52.508;13.468;2023-09-18T11:51:58;26.00;99.90
8563;DHT22;16392;52.508;13.468;2023-09-18T11:54:28;26.00;1.00
8563;DHT22;16392;52.508;13.468;2023-09-18T11:56:57;25.90;1.00
8563;DHT22;16392;52.508;13.468;2023-09-18T11:59:37;25.90;1.00
8563;DHT22;16392;52.508;13.468;2023-09-18T12:02:04;25.80;1.00
8563;DHT22;16392;52.508;13.468;2023-09-18T12:04:33;25.90;1.00
8563;DHT22;16392;52.508;13.468;2023-09-18T12:07:00;25.80;1.00
8563;DHT22;16392;52.508;13.468;2023-09-18T12:09:30;25.80;99.90
8563;DHT22;16392;52.508;13.468;2023-09-18T12:11:57;25.80;1.00
8563;DHT22;16392;52.508;13.468;2023-09-18T12:14:23;25.90;1.00
8563;DHT22;16392;52.508;13.468;2023-09-18T12:16:50;26.00;1.00
8563;DHT22;16392;52.508;13.468;2023-09-18T12:19:17;26.20;99.90
8563;DHT22;16392;52.508;13.468;2023-09-18T12:21:46;26.30;1.00
8563;DHT22;16392;52.508;13.468;2023-09-18T12:24:13;26.30;99.90
8563;DHT22;16392;52.508;13.468;2023-09-18T12:26:42;26.40;99.90
8563;DHT22;16392;52.508;13.468;2023-09-18T12:29:09;26.50;1.00
8563;DHT22;16392;52.508;13.468;2023-09-18T12:31:37;26.60;99.90
8563;DHT22;16392;52.508;13.468;2023-09-18T12:34:04;26.60;99.90
8563;DHT22;16392;52.508;13.468;2023-09-18T12:36:33;26.70;99.90
8563;DHT22;16392;52.508;13.468;2023-09-18T12:39:00;26.90;1.00
8563;DHT22;16392;52.508;13.468;2023-09-18T12:41:27;26.70;99.90
8563;DHT22;16392;52.508;13.468;2023-09-18T12:43:55;26.60;1.00
8563;DHT22;16392;52.508;13.468;2023-09-18T12:46:22;26.60;99.90
8563;DHT22;16392;52.508;13.468;2023-09-18T12:48:49;26.60;1.00
8563;DHT22;16392;52.508;13.468;2023-09-18T12:51:17;26.40;1.00
8563;DHT22;16392;52.508;13.468;2023-09-18T12:53:58;26.40;1.00
8563;DHT22;16392;52.508;13.468;2023-09-18T12:56:25;26.20;99.90
8563;DHT22;16392;52.508;13.468;2023-09-18T12:58:51;26.20;99.90
8563;DHT22;16392;52.508;13.468;2023-09-18T13:01:19;26.20;99.90
8563;DHT22;16392;52.508;13.468;2023-09-18T13:03:48;26.30;1.00
8563;DHT22;16392;52.508;13.468;2023-09-18T13:06:16;26.30;99.90
8563;DHT22;16392;52.508;13.468;2023-09-18T13:08:44;26.20;99.90
8563;DHT22;16392;52.508;13.468;2023-09-18T13:11:11;26.00;1.00
8563;DHT22;16392;52.508;13.468;2023-09-18T13:13:40;26.00;1.00
8563;DHT22;16392;52.508;13.468;2023-09-18T13:16:07;25.90;99.90
8563;DHT22;16392;52.508;13.468;2023-09-18T13:18:37;25.90;1.00
8563;DHT22;16392;52.508;13.468;2023-09-18T13:21:09;25.90;1.00
8563;DHT22;16392;52.508;13.468;2023-09-18T13:23:37;25.80;99.90
8563;DHT22;16392;52.508;13.468;2023-09-18T13:26:05;25.70;90.90
8563;DHT22;16392;52.508;13.468;2023-09-18T13:28:33;25.70;1.00
8563;DHT22;16392;52.508;13.468;2023-09-18T13:31:01;25.70;99.90
8563;DHT22;16392;52.508;13.468;2023-09-18T13:33:30;25.50;99.90
8563;DHT22;16392;52.508;13.468;2023-09-18T13:35:59;25.50;1.00
8563;DHT22;16392;52.508;13.468;2023-09-18T13:38:25;25.40;74.00
8563;DHT22;16392;52.508;13.468;2023-09-18T13:40:53;25.40;99.90
8563;DHT22;16392;52.508;13.468;2023-09-18T13:43:21;25.30;1.00
8563;DHT22;16392;52.508;13.468;2023-09-18T13:45:48;25.10;1.00
8563;DHT22;16392;52.508;13.468;2023-09-18T13:48:17;24.90;1.00
8563;DHT22;16392;52.508;13.468;2023-09-18T13:50:44;24.70;1.00
8563;DHT22;16392;52.508;13.468;2023-09-18T13:53:12;24.60;1.00
8563;DHT22;16392;52.508;13.468;2023-09-18T13:55:40;24.40;1.00
8563;DHT22;16392;52.508;13.468;2023-09-18T13:58:07;24.30;1.00
8563;DHT22;16392;52.508;13.468;2023-09-18T14:00:35;24.30;1.00
8563;DHT22;16392;52.508;13.468;2023-09-18T14:03:01;24.30;1.00
8563;DHT22;16392;52.508;13.468;2023-09-18T14:05:29;24.40;1.00
8563;DHT22;16392;52.508;13.468;2023-09-18T14:07:56;24.40;1.00
8563;DHT22;16392;52.508;13.468;2023-09-18T14:10:27;24.40;8.50
8563;DHT22;16392;52.508;13.468;2023-09-18T14:12:53;24.40;1.00
8563;DHT22;16392;52.508;13.468;2023-09-18T14:15:20;24.40;65.50
8563;DHT22;16392;52.508;13.468;2023-09-18T14:17:47;24.40;27.80
8563;DHT22;16392;52.508;13.468;2023-09-18T14:20:14;24.40;24.80
8563;DHT22;16392;52.508;13.468;2023-09-18T14:22:44;24.40;34.00
8563;DHT22;16392;52.508;13.468;2023-09-18T14:25:10;24.50;24.10
8563;DHT22;16392;52.508;13.468;2023-09-18T14:27:39;24.40;1.00
8563;DHT22;16392;52.508;13.468;2023-09-18T14:30:07;24.40;1.00
8563;DHT22;16392;52.508;13.468;2023-09-18T14:32:35;24.40;1.00
8563;DHT22;16392;52.508;13.468;2023-09-18T14:35:02;24.40;1.00
8563;DHT22;16392;52.508;13.468;2023-09-18T14:37:30;24.40;1.00
8563;DHT22;16392;52.508;13.468;2023-09-18T14:39:57;24.30;1.00
8563;DHT22;16392;52.508;13.468;2023-09-18T14:42:24;24.20;1.00
8563;DHT22;16392;52.508;13.468;2023-09-18T14:44:52;24.20;1.70
8563;DHT22;16392;52.508;13.468;2023-09-18T14:47:18;24.20;1.00
8563;DHT22;16392;52.508;13.468;2023-09-18T14:49:45;24.30;1.00
8563;DHT22;16392;52.508;13.468;2023-09-18T14:52:12;24.30;1.00
8563;DHT22;16392;52.508;13.468;2023-09-18T14:54:40;24.30;1.00
8563;DHT22;16392;52.508;13.468;2023-09-18T14:57:07;24.30;1.00
8563;DHT22;16392;52.508;13.468;2023-09-18T14:59:33;24.30;1.00
8563;DHT22;16392;52.508;13.468;2023-09-18T15:02:01;24.30;1.00
8563;DHT22;16392;52.508;13.468;2023-09-18T15:04:47;24.40;1.00
8563;DHT22;16392;52.508;13.468;2023-09-18T15:07:14;24.40;1.00
8563;DHT22;16392;52.508;13.468;2023-09-18T15:09:41;24.40;1.00
8563;DHT22;16392;52.508;13.468;2023-09-18T15:12:07;24.50;1.00
8563;DHT22;16392;52.508;13.468;2023-09-18T15:14:34;24.50;1.00
8563;DHT22;16392;52.508;13.468;2023-09-18T15:17:02;24.60;1.00
8563;DHT22;16392;52.508;13.468;2023-09-18T15:19:29;24.60;1.00
8563;DHT22;16392;52.508;13.468;2023-09-18T15:21:56;24.70;1.00
8563;DHT22;16392;52.508;13.468;2023-09-18T15:24:23;24.70;1.00
8563;DHT22;16392;52.508;13.468;2023-09-18T15:26:49;24.60;1.00
8563;DHT22;16392;52.508;13.468;2023-09-18T15:29:16;24.60;1.00
8563;DHT22;16392;52.508;13.468;2023-09-18T15:31:43;24.60;1.00
8563;DHT22;16392;52.508;13.468;2023-09-18T15:34:12;24.60;1.00
8563;DHT22;16392;52.508;13.468;2023-09-18T15:36:39;24.60;1.00
8563;DHT22;16392;52.508;13.468;2023-09-18T15:39:06;24.50;1.00
8563;DHT22;16392;52.508;13.468;2023-09-18T15:41:34;24.50;1.00